createdAt,value
2023-02-15T00:00:11.391Z,18.43
2023-02-15T00:02:39.541Z,19.80
2023-02-15T00:05:10.238Z,19.53
2023-02-15T00:07:37.933Z,17.87
2023-02-15T00:10:07.209Z,19.13
2023-02-15T00:12:38.632Z,19.10
2023-02-15T00:15:06.807Z,18.97
2023-02-15T00:17:34.593Z,18.30
2023-02-15T00:20:02.340Z,17.43
2023-02-15T00:22:30.013Z,15.47
2023-02-15T00:24:57.743Z,14.93
2023-02-15T00:27:27.863Z,17.93
2023-02-15T00:29:57.769Z,16.60
2023-02-15T00:32:27.977Z,17.17
2023-02-15T00:34:55.744Z,14.47
2023-02-15T00:37:25.638Z,13.13
2023-02-15T00:39:53.375Z,13.13
2023-02-15T00:42:21.183Z,14.03
2023-02-15T00:44:48.940Z,12.93
2023-02-15T00:47:18.062Z,13.33
2023-02-15T00:49:45.904Z,14.53
2023-02-15T00:52:13.659Z,13.43
2023-02-15T00:54:43.482Z,13.10
2023-02-15T00:57:11.189Z,14.03
2023-02-15T00:59:38.935Z,15.33
2023-02-15T01:02:08.873Z,15.83
2023-02-15T01:04:38.044Z,15.83
2023-02-15T01:07:05.887Z,17.50
2023-02-15T01:09:34.774Z,12.80
2023-02-15T01:12:04.641Z,16.80
2023-02-15T01:14:32.479Z,14.63
2023-02-15T01:17:02.397Z,13.03
2023-02-15T01:19:30.192Z,15.97
2023-02-15T01:21:59.425Z,14.03
2023-02-15T01:24:27.197Z,12.80
2023-02-15T01:26:55.024Z,14.10
2023-02-15T01:29:22.988Z,13.80
2023-02-15T01:31:50.914Z,14.17
2023-02-15T01:34:18.827Z,16.90
2023-02-15T01:36:46.588Z,16.80
2023-02-15T01:39:17.822Z,16.83
2023-02-15T01:41:45.585Z,16.47
2023-02-15T01:44:50.800Z,16.20
2023-02-15T01:47:22.792Z,13.90
2023-02-15T01:49:54.945Z,13.43
2023-02-15T01:52:22.757Z,13.10
2023-02-15T01:54:54.443Z,14.67
2023-02-15T01:57:25.986Z,14.67
2023-02-15T02:00:00.193Z,13.57
2023-02-15T02:02:29.121Z,16.90
2023-02-15T02:05:00.433Z,12.47
2023-02-15T02:07:30.852Z,15.40
2023-02-15T02:10:03.552Z,15.77
2023-02-15T02:12:37.925Z,16.87
2023-02-15T02:15:06.396Z,15.77
2023-02-15T02:17:44.792Z,15.37
2023-02-15T02:20:51.103Z,14.87
2023-02-15T02:23:29.330Z,12.03
2023-02-15T02:26:30.673Z,16.07
2023-02-15T02:29:40.569Z,12.10
2023-02-15T02:32:32.667Z,16.30
2023-02-15T02:35:13.400Z,14.20
2023-02-15T02:37:52.707Z,13.10
2023-02-15T02:40:27.829Z,15.10
2023-02-15T02:43:02.191Z,12.97
2023-02-15T02:45:36.480Z,10.70
2023-02-15T02:48:07.892Z,12.67
2023-02-15T02:50:37.044Z,12.93
2023-02-15T02:53:04.782Z,11.00
2023-02-15T02:55:36.959Z,10.63
2023-02-15T02:58:17.203Z,14.33
2023-02-15T03:00:55.594Z,12.00
2023-02-15T03:03:30.169Z,14.57
2023-02-15T03:06:02.619Z,14.63
2023-02-15T03:08:35.931Z,14.57
2023-02-15T03:11:06.057Z,15.00
2023-02-15T03:13:34.962Z,14.97
2023-02-15T03:16:21.804Z,16.90
2023-02-15T03:18:58.793Z,15.63
2023-02-15T03:21:35.730Z,15.27
2023-02-15T03:24:11.685Z,16.77
2023-02-15T03:26:42.131Z,15.63
2023-02-15T03:29:12.388Z,16.77
2023-02-15T03:31:46.381Z,15.13
2023-02-15T03:34:17.065Z,13.63
2023-02-15T03:36:54.207Z,12.60
2023-02-15T03:39:25.238Z,13.70
2023-02-15T03:42:01.017Z,15.63
2023-02-15T03:44:33.763Z,12.40
2023-02-15T03:47:08.093Z,13.10
2023-02-15T03:49:42.633Z,16.60
2023-02-15T03:52:15.006Z,17.13
2023-02-15T03:54:47.331Z,13.47
2023-02-15T03:57:36.518Z,15.37
2023-02-15T04:00:25.403Z,13.33
2023-02-15T04:03:21.702Z,14.37
2023-02-15T04:05:49.532Z,14.13
2023-02-15T04:08:41.830Z,12.73
2023-02-15T04:11:08.649Z,15.30
2023-02-15T04:13:36.506Z,18.13
2023-02-15T04:16:07.938Z,16.03
2023-02-15T04:18:57.874Z,14.70
2023-02-15T04:21:45.405Z,15.23
2023-02-15T04:24:32.987Z,16.67
2023-02-15T04:27:01.521Z,14.63
2023-02-15T04:29:29.853Z,12.43
2023-02-15T04:31:59.613Z,14.90
2023-02-15T04:34:27.488Z,13.90
2023-02-15T04:36:55.269Z,15.23
2023-02-15T04:39:24.442Z,13.50
2023-02-15T04:41:52.478Z,18.23
2023-02-15T04:44:20.820Z,18.33
2023-02-15T04:46:49.222Z,16.73
2023-02-15T04:49:17.131Z,13.53
2023-02-15T04:51:44.895Z,15.17
2023-02-15T04:54:12.644Z,17.87
2023-02-15T04:56:41.800Z,15.60
2023-02-15T04:59:11.762Z,20.60
2023-02-15T05:01:39.737Z,17.70
2023-02-15T05:04:07.610Z,16.43
2023-02-15T05:06:35.717Z,20.30
2023-02-15T05:09:03.499Z,13.30
2023-02-15T05:11:33.621Z,19.40
2023-02-15T05:14:02.769Z,18.23
2023-02-15T05:16:30.684Z,19.10
2023-02-15T05:19:00.723Z,18.07
2023-02-15T05:21:28.613Z,16.10
2023-02-15T05:23:56.442Z,16.40
2023-02-15T05:26:43.761Z,18.37
2023-02-15T05:29:13.030Z,14.17
2023-02-15T05:31:41.122Z,16.63
2023-02-15T05:34:09.144Z,18.27
2023-02-15T05:36:36.991Z,17.47
2023-02-15T05:39:06.817Z,14.87
2023-02-15T05:41:34.714Z,19.20
2023-02-15T05:44:05.932Z,12.17
2023-02-15T05:46:37.133Z,17.20
2023-02-15T05:49:05.056Z,17.57
2023-02-15T05:51:32.787Z,16.63
2023-02-15T05:54:00.647Z,17.03
2023-02-15T05:56:28.574Z,16.00
2023-02-15T05:58:56.428Z,16.13
2023-02-15T06:01:24.610Z,16.77
2023-02-15T06:03:56.753Z,13.80
2023-02-15T06:06:24.485Z,15.10
2023-02-15T06:08:52.381Z,17.87
2023-02-15T06:11:20.207Z,15.77
2023-02-15T06:13:47.968Z,17.47
2023-02-15T06:16:16.799Z,17.00
2023-02-15T06:18:44.919Z,16.63
2023-02-15T06:21:14.128Z,11.67
2023-02-15T06:23:42.140Z,19.70
2023-02-15T06:26:09.909Z,18.80
2023-02-15T06:28:38.172Z,16.20
2023-02-15T06:31:06.496Z,17.63
2023-02-15T06:33:35.304Z,17.30
2023-02-15T06:36:04.781Z,17.07
2023-02-15T06:38:34.192Z,15.97
2023-02-15T06:41:02.013Z,16.13
2023-02-15T06:43:29.790Z,19.67
2023-02-15T06:45:57.696Z,13.73
2023-02-15T06:48:25.531Z,18.93
2023-02-15T06:50:53.290Z,18.03
2023-02-15T06:53:21.177Z,15.83
2023-02-15T06:55:50.375Z,19.53
2023-02-15T06:58:19.008Z,13.37
2023-02-15T07:00:47.059Z,17.67
2023-02-15T07:03:16.775Z,14.27
2023-02-15T07:05:44.662Z,15.67
2023-02-15T07:08:15.130Z,17.17
2023-02-15T07:10:45.715Z,13.63
2023-02-15T07:13:13.918Z,13.33
2023-02-15T07:15:41.820Z,12.93
2023-02-15T07:18:10.009Z,16.33
2023-02-15T07:20:38.475Z,15.07
2023-02-15T07:23:06.837Z,17.20
2023-02-15T07:25:34.663Z,14.50
2023-02-15T07:28:04.564Z,16.00
2023-02-15T07:30:34.106Z,15.43
2023-02-15T07:33:19.521Z,15.67
2023-02-15T07:35:50.778Z,15.27
2023-02-15T07:38:18.680Z,12.00
2023-02-15T07:40:47.250Z,12.37
2023-02-15T07:43:15.911Z,12.87
2023-02-15T07:45:45.589Z,12.33
2023-02-15T07:48:13.359Z,13.87
2023-02-15T07:50:43.865Z,15.77
2023-02-15T07:53:11.686Z,15.03
2023-02-15T07:55:39.818Z,15.90
2023-02-15T07:58:07.633Z,14.93
2023-02-15T08:00:55.367Z,13.43
2023-02-15T08:03:27.933Z,12.43
2023-02-15T08:05:59.897Z,15.27
2023-02-15T08:08:34.243Z,15.70
2023-02-15T08:11:21.227Z,13.77
2023-02-15T08:13:55.986Z,13.43
2023-02-15T08:16:29.213Z,16.27
2023-02-15T08:18:59.368Z,16.27
2023-02-15T08:21:29.594Z,16.47
2023-02-15T08:23:57.786Z,16.10
2023-02-15T08:26:26.817Z,16.57
2023-02-15T08:28:54.724Z,14.13
2023-02-15T08:31:25.362Z,14.43
2023-02-15T08:33:55.498Z,16.40
2023-02-15T08:36:26.494Z,14.07
2023-02-15T08:38:54.298Z,16.73
2023-02-15T08:41:24.183Z,16.93
2023-02-15T08:43:55.344Z,17.27
2023-02-15T08:46:24.817Z,23.33
2023-02-15T08:48:52.842Z,20.67
2023-02-15T08:51:22.579Z,15.90
2023-02-15T08:53:54.041Z,17.73
2023-02-15T08:56:24.898Z,18.07
2023-02-15T08:58:52.735Z,18.90
2023-02-15T09:01:22.672Z,15.60
2023-02-15T09:03:53.826Z,19.00
2023-02-15T09:06:22.816Z,14.40
2023-02-15T09:08:52.403Z,17.53
2023-02-15T09:11:24.798Z,18.07
2023-02-15T09:13:55.217Z,18.37
2023-02-15T09:16:24.068Z,17.97
2023-02-15T09:18:52.870Z,14.03
2023-02-15T09:21:22.824Z,16.83
2023-02-15T09:23:53.648Z,15.67
2023-02-15T09:26:22.992Z,18.27
2023-02-15T09:28:59.234Z,16.03
2023-02-15T09:31:29.535Z,15.87
2023-02-15T09:33:58.463Z,18.03
2023-02-15T09:36:28.340Z,15.10
2023-02-15T09:38:59.308Z,17.60
2023-02-15T09:41:54.459Z,16.30
2023-02-15T09:44:33.399Z,15.87
2023-02-15T09:47:23.896Z,16.10
2023-02-15T09:50:02.570Z,17.73
2023-02-15T09:52:48.882Z,15.80
2023-02-15T09:55:40.885Z,18.83
2023-02-15T09:58:19.452Z,20.63
2023-02-15T10:00:56.363Z,18.60
2023-02-15T10:03:44.203Z,18.37
2023-02-15T10:06:30.934Z,20.20
2023-02-15T10:09:17.889Z,19.27
2023-02-15T10:12:02.960Z,19.83
2023-02-15T10:14:52.476Z,18.30
2023-02-15T10:17:37.083Z,19.83
2023-02-15T10:20:19.944Z,19.23
2023-02-15T10:23:02.562Z,20.40
2023-02-15T10:25:43.495Z,21.30
2023-02-15T10:28:18.191Z,18.93
2023-02-15T10:30:49.508Z,21.03
2023-02-15T10:33:35.252Z,19.67
2023-02-15T10:36:14.200Z,20.80
2023-02-15T10:38:44.664Z,19.07
2023-02-15T10:41:25.374Z,20.03
2023-02-15T10:44:07.270Z,20.47
2023-02-15T10:46:56.268Z,20.83
2023-02-15T10:49:47.382Z,21.00
2023-02-15T10:52:30.215Z,21.37
2023-02-15T10:55:08.141Z,19.63
2023-02-15T10:57:44.017Z,19.77
2023-02-15T11:00:20.744Z,19.87
2023-02-15T11:03:04.526Z,20.43
2023-02-15T11:05:42.366Z,18.60
2023-02-15T11:08:12.680Z,19.30
2023-02-15T11:10:45.019Z,19.23
2023-02-15T11:13:17.349Z,19.27
2023-02-15T11:15:53.547Z,18.47
2023-02-15T11:18:28.277Z,19.07
2023-02-15T11:21:01.741Z,19.00
2023-02-15T11:23:30.432Z,19.63
2023-02-15T11:26:01.722Z,20.13
2023-02-15T11:28:33.656Z,19.13
2023-02-15T11:31:14.362Z,17.93
2023-02-15T11:33:45.483Z,18.77
2023-02-15T11:36:18.211Z,17.03
2023-02-15T11:38:48.858Z,19.03
2023-02-15T11:41:21.121Z,17.93
2023-02-15T11:43:55.426Z,17.77
2023-02-15T11:46:24.843Z,17.17
2023-02-15T11:48:52.706Z,18.10
2023-02-15T11:51:24.446Z,16.57
2023-02-15T11:53:53.612Z,18.40
2023-02-15T11:56:24.491Z,18.00
2023-02-15T11:58:57.657Z,18.47
2023-02-15T12:01:32.766Z,16.80
2023-02-15T12:04:04.919Z,15.20
2023-02-15T12:06:39.550Z,14.60
2023-02-15T12:09:21.432Z,18.17
2023-02-15T12:11:50.890Z,17.67
2023-02-15T12:14:18.678Z,20.00
2023-02-15T12:16:50.342Z,20.30
2023-02-15T12:19:30.779Z,23.00
2023-02-15T12:22:00.172Z,22.03
2023-02-15T12:24:32.042Z,21.30
2023-02-15T12:27:05.382Z,19.17
2023-02-15T12:29:41.470Z,21.23
2023-02-15T12:32:19.215Z,21.13
2023-02-15T12:34:48.412Z,19.97
2023-02-15T12:37:21.958Z,18.97
2023-02-15T12:39:55.592Z,20.60
2023-02-15T12:42:24.828Z,21.77
2023-02-15T12:44:57.644Z,20.33
2023-02-15T12:47:29.387Z,21.00
2023-02-15T12:50:17.656Z,20.07
2023-02-15T12:52:49.904Z,20.57
2023-02-15T12:55:26.359Z,20.60
2023-02-15T12:58:10.058Z,20.33
2023-02-15T13:00:38.142Z,21.90
2023-02-15T13:03:19.716Z,21.00
2023-02-15T13:05:52.454Z,21.43
2023-02-15T13:08:23.005Z,21.20
2023-02-15T13:11:00.675Z,20.30
2023-02-15T13:13:31.340Z,20.43
2023-02-15T13:16:01.789Z,21.40
2023-02-15T13:18:34.186Z,21.07
2023-02-15T13:21:08.611Z,18.37
2023-02-15T13:23:36.577Z,20.17
2023-02-15T13:26:06.909Z,18.43
2023-02-15T13:28:42.516Z,20.20
2023-02-15T13:31:16.120Z,20.57
2023-02-15T13:33:50.180Z,17.73
2023-02-15T13:36:29.261Z,19.33
2023-02-15T13:39:09.679Z,18.80
2023-02-15T13:41:52.881Z,19.27
2023-02-15T13:44:30.516Z,18.73
2023-02-15T13:47:08.868Z,19.23
2023-02-15T13:49:52.973Z,17.97
2023-02-15T13:52:23.166Z,19.33
2023-02-15T13:55:01.756Z,18.97
2023-02-15T13:57:57.105Z,19.20
2023-02-15T14:00:31.039Z,17.10
2023-02-15T14:03:24.361Z,18.93
2023-02-15T14:06:05.181Z,17.37
2023-02-15T14:08:48.179Z,18.00
2023-02-15T14:11:24.604Z,18.00
2023-02-15T14:14:24.914Z,17.47
2023-02-15T14:17:07.511Z,17.03
2023-02-15T14:19:42.325Z,17.23
2023-02-15T14:22:20.775Z,17.33
2023-02-15T14:24:56.857Z,16.33
2023-02-15T14:27:30.102Z,16.23
2023-02-15T14:30:00.267Z,17.00
2023-02-15T14:32:36.541Z,18.40
2023-02-15T14:35:06.045Z,17.10
2023-02-15T14:37:45.494Z,17.03
2023-02-15T14:40:39.344Z,14.73
2023-02-15T14:43:13.050Z,13.43
2023-02-15T14:45:57.951Z,10.20
2023-02-15T14:48:32.402Z,15.80
2023-02-15T14:51:03.099Z,13.77
2023-02-15T14:53:50.136Z,13.57
2023-02-15T14:56:30.321Z,15.33
2023-02-15T14:59:17.225Z,14.97
2023-02-15T15:01:56.969Z,14.87
2023-02-15T15:04:30.669Z,14.97
2023-02-15T15:07:09.952Z,15.03
2023-02-15T15:09:41.212Z,15.83
2023-02-15T15:12:37.681Z,14.73
2023-02-15T15:15:07.301Z,12.87
2023-02-15T15:17:57.185Z,15.10
2023-02-15T15:20:45.338Z,10.50
2023-02-15T15:23:46.695Z,14.90
2023-02-15T15:26:31.819Z,13.10
2023-02-15T15:29:03.477Z,14.40
2023-02-15T15:31:44.871Z,15.20
2023-02-15T15:34:30.188Z,14.53
2023-02-15T15:37:27.821Z,15.03
2023-02-15T15:40:35.429Z,13.70
2023-02-15T15:43:45.003Z,14.10
2023-02-15T15:46:32.906Z,14.60
2023-02-15T15:49:04.925Z,15.80
2023-02-15T15:51:34.446Z,14.50
2023-02-15T15:54:04.974Z,15.43
2023-02-15T15:56:37.993Z,15.93
2023-02-15T15:59:09.898Z,15.00
2023-02-15T16:01:43.115Z,14.17
2023-02-15T16:04:14.101Z,16.80
2023-02-15T16:06:42.527Z,17.67
2023-02-15T16:09:15.777Z,18.67
2023-02-15T16:11:44.374Z,17.47
2023-02-15T16:14:19.990Z,18.50
2023-02-15T16:16:54.166Z,13.87
2023-02-15T16:19:26.611Z,16.30
2023-02-15T16:21:55.958Z,16.87
2023-02-15T16:24:34.803Z,18.73
2023-02-15T16:27:26.670Z,18.73
2023-02-15T16:29:55.919Z,18.80
2023-02-15T16:32:25.618Z,18.90
2023-02-15T16:34:57.612Z,18.90
2023-02-15T16:37:28.284Z,18.47
2023-02-15T16:39:57.459Z,22.30
2023-02-15T16:42:26.152Z,20.60
2023-02-15T16:45:03.719Z,18.47
2023-02-15T17:03:57.957Z,13.10
2023-02-15T17:06:30.693Z,13.13
2023-02-15T17:09:06.601Z,14.00
2023-02-15T17:11:42.534Z,17.30
2023-02-15T17:14:22.970Z,19.20
2023-02-15T17:16:54.654Z,16.77
2023-02-15T17:19:27.204Z,17.07
2023-02-15T17:21:57.217Z,16.10
2023-02-15T17:24:35.268Z,18.47
2023-02-15T17:27:07.055Z,15.20
2023-02-15T17:29:40.709Z,19.47
2023-02-15T17:32:18.337Z,15.60
2023-02-15T17:34:59.958Z,18.27
2023-02-15T17:37:33.472Z,18.90
2023-02-15T17:40:03.044Z,20.00
2023-02-15T17:42:31.540Z,22.50
2023-02-15T17:44:59.412Z,16.90
2023-02-15T17:47:38.917Z,18.50
2023-02-15T17:50:09.974Z,16.13
2023-02-15T17:52:38.136Z,21.80
2023-02-15T17:55:31.800Z,19.67
2023-02-15T17:58:00.627Z,20.33
2023-02-15T18:00:46.027Z,20.87
2023-02-15T18:03:31.845Z,19.43
2023-02-15T18:06:18.863Z,16.63
2023-02-15T18:09:03.962Z,18.93
2023-02-15T18:11:40.702Z,15.93
2023-02-15T18:14:11.973Z,13.77
2023-02-15T18:16:43.351Z,14.93
2023-02-15T18:19:16.826Z,20.13
2023-02-15T18:21:47.347Z,21.97
2023-02-15T18:24:18.481Z,18.57
2023-02-15T18:26:47.078Z,18.73
2023-02-15T18:29:15.180Z,18.83
2023-02-15T18:31:45.509Z,13.43
2023-02-15T18:34:23.896Z,19.30
2023-02-15T18:36:56.284Z,15.00
2023-02-15T18:39:38.490Z,17.47
2023-02-15T18:42:07.225Z,18.53
2023-02-15T18:44:35.012Z,17.03
2023-02-15T18:47:02.783Z,14.23
2023-02-15T18:49:30.617Z,17.87
2023-02-15T18:52:03.584Z,17.17
2023-02-15T18:54:31.600Z,19.73
2023-02-15T18:57:02.380Z,18.67
2023-02-15T18:59:31.137Z,20.53
2023-02-15T19:02:00.455Z,16.30
2023-02-15T19:04:28.278Z,20.33
2023-02-15T19:06:56.290Z,15.70
2023-02-15T19:09:27.763Z,18.97
2023-02-15T19:11:57.168Z,18.83
2023-02-15T19:14:28.079Z,20.77
2023-02-15T19:16:56.495Z,16.07
2023-02-15T19:19:27.162Z,18.33
2023-02-15T19:21:55.638Z,17.17
2023-02-15T19:24:28.674Z,23.20
2023-02-15T19:26:58.747Z,22.37
2023-02-15T19:29:29.341Z,23.30
2023-02-15T19:31:58.131Z,19.63
2023-02-15T19:34:26.069Z,19.47
2023-02-15T19:36:56.600Z,20.97
2023-02-15T19:39:31.070Z,18.13
2023-02-15T19:41:58.893Z,20.73
2023-02-15T19:44:26.790Z,21.67
2023-02-15T19:46:54.630Z,19.90
2023-02-15T19:49:22.426Z,18.77
2023-02-15T19:51:50.433Z,20.33
2023-02-15T19:54:28.171Z,16.63
2023-02-15T19:56:58.013Z,15.10
2023-02-15T19:59:27.528Z,19.30
2023-02-15T20:01:55.424Z,19.87
2023-02-15T20:04:23.822Z,19.20
2023-02-15T20:06:53.810Z,17.00
2023-02-15T20:09:25.392Z,16.47
2023-02-15T20:11:53.551Z,15.93
2023-02-15T20:14:23.585Z,20.93
2023-02-15T20:16:51.498Z,22.00
2023-02-15T20:19:19.452Z,20.90
2023-02-15T20:21:51.883Z,20.93
2023-02-15T20:24:22.154Z,25.50
2023-02-15T20:26:50.321Z,23.60
2023-02-15T20:29:19.793Z,18.27
2023-02-15T20:31:48.993Z,18.53
2023-02-15T20:34:16.861Z,23.63
2023-02-15T20:36:44.601Z,19.23
2023-02-15T20:39:16.399Z,20.27
2023-02-15T20:41:48.056Z,25.53
2023-02-15T20:44:22.043Z,25.83
2023-02-15T20:46:52.887Z,23.37
2023-02-15T20:49:20.781Z,24.10
2023-02-15T20:51:49.089Z,18.20
2023-02-15T20:54:18.898Z,20.80
2023-02-15T20:56:47.478Z,18.83
2023-02-15T20:59:26.777Z,22.63
2023-02-15T21:02:00.563Z,23.20
2023-02-15T21:04:31.325Z,21.37
2023-02-15T21:06:59.884Z,16.40
2023-02-15T21:09:28.179Z,22.93
2023-02-15T21:11:57.941Z,22.80
2023-02-15T21:14:28.123Z,22.67
2023-02-15T21:16:57.565Z,19.00
2023-02-15T21:19:25.923Z,17.97
2023-02-15T21:21:54.585Z,22.17
2023-02-15T21:24:25.379Z,23.87
2023-02-15T21:26:54.348Z,24.30
2023-02-15T21:29:24.130Z,21.90
2023-02-15T21:31:52.172Z,19.50
2023-02-15T21:34:21.836Z,23.53
2023-02-15T21:36:50.566Z,19.20
2023-02-15T21:39:22.139Z,20.57
2023-02-15T21:42:08.846Z,20.23
2023-02-15T21:44:57.069Z,20.40
2023-02-15T21:47:44.700Z,18.60
2023-02-15T21:50:33.067Z,24.93
2023-02-15T21:53:11.818Z,24.03
2023-02-15T21:55:39.902Z,19.00
2023-02-15T21:58:07.653Z,22.17
2023-02-15T22:00:35.414Z,19.20
2023-02-15T22:03:03.243Z,21.30
2023-02-15T22:05:34.431Z,16.90
2023-02-15T22:08:02.454Z,17.47
2023-02-15T22:10:32.776Z,19.57
2023-02-15T22:13:04.079Z,21.90
2023-02-15T22:15:35.591Z,22.23
2023-02-15T22:18:04.425Z,16.17
2023-02-15T22:20:33.665Z,16.03
2023-02-15T22:23:03.762Z,17.33
2023-02-15T22:25:31.643Z,19.53
2023-02-15T22:27:59.426Z,15.30
2023-02-15T22:30:29.764Z,20.80
2023-02-15T22:32:59.133Z,22.23
2023-02-15T22:35:29.206Z,20.47
2023-02-15T22:37:59.274Z,17.47
2023-02-15T22:40:30.049Z,21.17
2023-02-15T22:43:00.795Z,20.83
2023-02-15T22:45:29.130Z,18.33
2023-02-15T22:47:59.613Z,19.20
2023-02-15T22:50:29.708Z,19.27
2023-02-15T22:53:00.690Z,20.70
2023-02-15T22:55:32.058Z,21.77
2023-02-15T22:58:00.219Z,20.93
2023-02-15T23:00:30.569Z,21.03
2023-02-15T23:02:58.535Z,17.67
2023-02-15T23:05:30.906Z,18.73
2023-02-15T23:08:00.013Z,20.90
2023-02-15T23:10:29.969Z,21.77
2023-02-15T23:13:17.103Z,17.67
2023-02-15T23:15:48.713Z,20.70
2023-02-15T23:18:19.687Z,20.23
2023-02-15T23:20:50.141Z,18.37
2023-02-15T23:23:23.607Z,21.47
2023-02-15T23:25:51.427Z,19.10
2023-02-15T23:28:22.612Z,16.80
2023-02-15T23:30:50.827Z,17.47
2023-02-15T23:33:21.576Z,19.60
2023-02-15T23:35:49.722Z,21.13
2023-02-15T23:38:24.936Z,16.77
2023-02-15T23:41:14.257Z,15.03
2023-02-15T23:43:47.355Z,19.67
2023-02-15T23:46:27.114Z,19.47
2023-02-15T23:48:55.857Z,21.03
2023-02-15T23:51:31.073Z,20.57
2023-02-15T23:54:00.217Z,19.40
2023-02-15T23:56:27.971Z,19.37
2023-02-15T23:58:55.892Z,16.90
